createdAt,value
2022-09-15T00:01:51.839Z,16.91
2022-09-15T00:04:18.181Z,16.91
2022-09-15T00:06:44.898Z,16.91
2022-09-15T00:09:11.334Z,16.92
2022-09-15T00:11:38.040Z,16.92
2022-09-15T00:14:06.916Z,16.93
2022-09-15T00:16:33.488Z,16.91
2022-09-15T00:19:00.279Z,16.92
2022-09-15T00:21:28.451Z,16.93
2022-09-15T00:23:55.299Z,16.95
2022-09-15T00:26:23.693Z,16.97
2022-09-15T00:28:50.441Z,16.97
2022-09-15T00:31:18.393Z,17.00
2022-09-15T00:33:48.655Z,17.02
2022-09-15T00:36:15.930Z,17.03
2022-09-15T00:38:42.614Z,17.05
2022-09-15T00:41:11.122Z,17.09
2022-09-15T00:43:42.615Z,17.11
2022-09-15T00:46:10.237Z,17.15
2022-09-15T00:48:39.645Z,17.17
2022-09-15T00:51:07.089Z,17.18
2022-09-15T00:53:33.853Z,17.18
2022-09-15T00:56:02.387Z,17.16
2022-09-15T00:58:43.935Z,17.15
2022-09-15T01:01:11.192Z,17.15
2022-09-15T01:03:37.743Z,17.14
2022-09-15T01:06:06.958Z,17.15
2022-09-15T01:08:39.503Z,17.15
2022-09-15T01:11:05.948Z,17.17
2022-09-15T01:13:32.303Z,17.18
2022-09-15T01:16:14.665Z,17.21
2022-09-15T01:18:48.883Z,17.23
2022-09-15T01:21:18.257Z,17.26
2022-09-15T01:23:59.165Z,17.29
2022-09-15T01:26:42.691Z,17.31
2022-09-15T01:29:27.496Z,17.33
2022-09-15T01:32:31.472Z,17.33
2022-09-15T01:35:24.328Z,17.37
2022-09-15T01:37:52.614Z,17.38
2022-09-15T01:40:21.065Z,17.40
2022-09-15T01:42:49.374Z,17.42
2022-09-15T01:45:22.349Z,17.45
2022-09-15T01:47:50.647Z,17.47
2022-09-15T01:50:20.172Z,17.48
2022-09-15T01:52:48.887Z,17.48
2022-09-15T01:55:20.481Z,17.48
2022-09-15T01:57:46.912Z,17.47
2022-09-15T02:00:13.525Z,17.49
2022-09-15T02:02:45.847Z,17.48
2022-09-15T02:05:21.592Z,17.48
2022-09-15T02:08:05.089Z,17.50
2022-09-15T02:10:43.914Z,17.49
2022-09-15T02:13:16.920Z,17.49
2022-09-15T02:15:48.330Z,17.49
2022-09-15T02:18:22.743Z,17.49
2022-09-15T02:20:58.556Z,17.49
2022-09-15T02:23:28.664Z,17.48
2022-09-15T02:26:06.408Z,17.49
2022-09-15T02:28:35.647Z,17.51
2022-09-15T02:31:03.388Z,17.50
2022-09-15T02:33:33.442Z,17.49
2022-09-15T02:36:00.047Z,17.49
2022-09-15T02:38:30.037Z,17.48
2022-09-15T02:40:56.967Z,17.48
2022-09-15T02:43:23.365Z,17.49
2022-09-15T02:45:49.809Z,17.51
2022-09-15T02:48:16.174Z,17.50
2022-09-15T02:50:42.490Z,17.51
2022-09-15T02:53:09.061Z,17.51
2022-09-15T02:55:35.473Z,17.46
2022-09-15T02:58:02.890Z,17.42
2022-09-15T03:00:29.433Z,17.40
2022-09-15T03:02:56.028Z,17.39
2022-09-15T03:05:23.922Z,17.31
2022-09-15T03:07:51.270Z,17.24
2022-09-15T03:10:17.723Z,17.12
2022-09-15T03:12:48.429Z,17.24
2022-09-15T03:15:15.782Z,17.22
2022-09-15T03:17:43.825Z,17.29
2022-09-15T03:20:11.728Z,17.33
2022-09-15T03:22:38.317Z,17.38
2022-09-15T03:25:05.520Z,17.38
2022-09-15T03:27:32.139Z,17.33
2022-09-15T03:29:59.043Z,17.31
2022-09-15T03:32:25.387Z,17.39
2022-09-15T03:34:56.397Z,17.40
2022-09-15T03:37:24.592Z,17.40
2022-09-15T03:39:50.932Z,17.37
2022-09-15T03:42:17.450Z,17.37
2022-09-15T03:44:43.796Z,17.35
2022-09-15T03:47:10.213Z,17.35
2022-09-15T03:49:36.993Z,17.29
2022-09-15T03:52:03.423Z,17.31
2022-09-15T03:54:29.906Z,17.29
2022-09-15T03:56:56.374Z,17.34
2022-09-15T03:59:22.844Z,17.30
2022-09-15T04:01:50.120Z,17.22
2022-09-15T04:04:16.658Z,17.21
2022-09-15T04:06:43.392Z,17.25
2022-09-15T04:09:10.211Z,17.24
2022-09-15T04:11:37.573Z,17.29
2022-09-15T04:14:04.133Z,17.29
2022-09-15T04:16:30.516Z,17.25
2022-09-15T04:18:57.559Z,17.25
2022-09-15T04:21:25.405Z,17.24
2022-09-15T04:23:52.127Z,17.28
2022-09-15T04:26:26.229Z,17.29
2022-09-15T04:28:52.902Z,17.29
2022-09-15T04:31:19.473Z,17.30
2022-09-15T04:33:46.530Z,17.30
2022-09-15T04:36:14.939Z,17.29
2022-09-15T04:38:42.459Z,17.28
2022-09-15T04:41:08.912Z,17.28
2022-09-15T04:43:35.473Z,17.29
2022-09-15T04:46:01.757Z,17.33
2022-09-15T04:48:28.387Z,17.33
2022-09-15T04:50:54.733Z,17.33
2022-09-15T04:53:21.047Z,17.32
2022-09-15T04:55:47.344Z,17.31
2022-09-15T04:58:13.772Z,17.31
2022-09-15T05:00:44.256Z,17.29
2022-09-15T05:03:11.422Z,17.23
2022-09-15T05:05:38.060Z,17.22
2022-09-15T05:08:04.434Z,17.22
2022-09-15T05:10:30.844Z,17.23
2022-09-15T05:12:57.170Z,17.19
2022-09-15T05:15:24.119Z,17.17
2022-09-15T05:17:50.477Z,17.17
2022-09-15T05:20:17.578Z,17.16
2022-09-15T05:22:44.206Z,17.14
2022-09-15T05:25:10.863Z,17.13
2022-09-15T05:27:39.175Z,17.14
2022-09-15T05:30:35.183Z,17.15
2022-09-15T05:32:53.005Z,17.18
2022-09-15T05:35:19.852Z,17.20
2022-09-15T05:37:46.309Z,17.16
2022-09-15T05:40:15.518Z,17.17
2022-09-15T05:42:41.861Z,17.18
2022-09-15T05:45:08.624Z,17.14
2022-09-15T05:47:34.919Z,17.18
2022-09-15T05:50:01.269Z,17.24
2022-09-15T05:52:27.570Z,17.29
2022-09-15T05:54:58.845Z,17.37
2022-09-15T05:57:25.578Z,17.47
2022-09-15T05:59:55.042Z,17.54
2022-09-15T06:02:21.448Z,17.60
2022-09-15T06:04:47.782Z,17.63
2022-09-15T06:07:14.145Z,17.65
2022-09-15T06:09:40.866Z,17.60
2022-09-15T06:12:07.306Z,17.58
2022-09-15T06:14:33.635Z,17.59
2022-09-15T06:17:00.129Z,17.58
2022-09-15T06:19:26.454Z,17.58
2022-09-15T06:21:53.891Z,17.42
2022-09-15T06:24:20.243Z,17.45
2022-09-15T06:26:46.591Z,17.44
2022-09-15T06:29:13.325Z,17.40
2022-09-15T06:31:40.416Z,17.43
2022-09-15T06:34:06.833Z,17.45
2022-09-15T06:36:33.608Z,17.44
2022-09-15T06:38:59.958Z,17.39
2022-09-15T06:41:38.128Z,17.43
2022-09-15T06:44:09.495Z,17.44
2022-09-15T06:46:36.173Z,17.52
2022-09-15T06:49:02.545Z,17.57
2022-09-15T06:51:31.346Z,17.55
2022-09-15T06:53:57.674Z,17.64
2022-09-15T06:56:23.988Z,17.64
2022-09-15T06:58:50.489Z,17.68
2022-09-15T07:01:25.160Z,17.64
2022-09-15T07:03:51.952Z,17.53
2022-09-15T07:06:22.022Z,17.49
2022-09-15T07:08:49.661Z,17.49
2022-09-15T07:11:17.227Z,17.57
2022-09-15T07:13:43.530Z,17.63
2022-09-15T07:16:11.830Z,17.63
2022-09-15T07:18:42.879Z,17.65
2022-09-15T07:21:14.063Z,17.74
2022-09-15T07:23:40.414Z,17.81
2022-09-15T07:26:07.070Z,17.78
2022-09-15T07:28:33.549Z,17.80
2022-09-15T07:31:00.115Z,17.79
2022-09-15T07:33:29.439Z,17.71
2022-09-15T07:35:55.763Z,17.75
2022-09-15T07:38:22.131Z,17.80
2022-09-15T07:40:49.230Z,17.50
2022-09-15T07:43:16.269Z,17.59
2022-09-15T07:45:42.771Z,17.59
2022-09-15T07:48:09.209Z,17.55
2022-09-15T07:50:35.602Z,17.52
2022-09-15T07:53:02.015Z,17.61
2022-09-15T07:55:30.277Z,17.59
2022-09-15T07:57:57.850Z,17.57
2022-09-15T08:00:24.351Z,17.73
2022-09-15T08:02:50.723Z,17.85
2022-09-15T08:05:17.037Z,17.97
2022-09-15T08:07:43.353Z,18.16
2022-09-15T08:10:09.962Z,18.20
2022-09-15T08:12:36.387Z,18.20
2022-09-15T08:15:03.659Z,18.31
2022-09-15T08:17:30.053Z,18.47
2022-09-15T08:19:56.430Z,18.56
2022-09-15T08:22:22.737Z,18.68
2022-09-15T08:24:49.153Z,18.76
2022-09-15T08:27:15.463Z,18.96
2022-09-15T08:29:41.753Z,19.11
2022-09-15T08:32:08.134Z,19.26
2022-09-15T08:34:34.509Z,19.47
2022-09-15T08:37:00.845Z,19.55
2022-09-15T08:39:27.174Z,19.70
2022-09-15T08:41:53.908Z,19.97
2022-09-15T08:44:38.989Z,20.23
2022-09-15T08:47:20.417Z,20.31
2022-09-15T08:49:56.032Z,20.30
2022-09-15T08:52:28.548Z,20.19
2022-09-15T08:54:57.183Z,20.03
2022-09-15T08:57:25.748Z,19.98
2022-09-15T08:59:54.281Z,19.80
2022-09-15T09:02:23.821Z,19.60
2022-09-15T09:05:05.860Z,19.49
2022-09-15T09:07:38.364Z,19.30
2022-09-15T09:10:15.385Z,19.21
2022-09-15T09:13:00.475Z,18.81
2022-09-15T09:15:34.973Z,18.25
2022-09-15T09:18:20.022Z,18.06
2022-09-15T09:21:05.386Z,17.86
2022-09-15T09:23:33.273Z,17.80
2022-09-15T09:26:01.984Z,17.81
2022-09-15T09:28:30.324Z,17.84
2022-09-15T09:31:07.080Z,17.83
2022-09-15T09:33:49.033Z,17.90
2022-09-15T09:36:15.589Z,18.00
2022-09-15T09:38:45.088Z,18.10
2022-09-15T09:41:16.784Z,18.31
2022-09-15T09:43:46.217Z,18.53
2022-09-15T09:46:16.178Z,18.82
2022-09-15T09:48:45.233Z,19.07
2022-09-15T09:51:31.188Z,19.35
2022-09-15T09:54:06.545Z,19.88
2022-09-15T09:56:33.827Z,20.31
2022-09-15T09:59:03.871Z,20.18
2022-09-15T10:01:31.354Z,20.44
2022-09-15T10:04:16.251Z,20.96
2022-09-15T10:06:43.392Z,20.84
2022-09-15T10:09:14.857Z,20.65
2022-09-15T10:12:05.149Z,20.51
2022-09-15T10:14:35.145Z,20.91
2022-09-15T10:17:08.034Z,20.83
2022-09-15T10:19:43.533Z,20.59
2022-09-15T10:22:20.648Z,20.43
2022-09-15T10:24:47.215Z,20.21
2022-09-15T10:27:19.675Z,19.78
2022-09-15T10:29:46.634Z,19.30
2022-09-15T10:32:20.612Z,18.94
2022-09-15T10:34:58.183Z,18.81
2022-09-15T10:37:43.517Z,18.62
2022-09-15T10:40:28.127Z,18.66
2022-09-15T10:43:11.155Z,18.74
2022-09-15T10:45:46.004Z,18.76
2022-09-15T10:48:30.440Z,19.32
2022-09-15T10:51:23.333Z,20.35
2022-09-15T10:53:56.733Z,21.06
2022-09-15T10:56:39.118Z,21.16
2022-09-15T10:59:26.301Z,21.37
2022-09-15T11:02:02.965Z,20.90
2022-09-15T11:04:35.407Z,20.82
2022-09-15T11:07:15.936Z,20.73
2022-09-15T11:09:48.684Z,20.56
2022-09-15T11:12:33.924Z,20.36
2022-09-15T11:15:06.062Z,20.27
2022-09-15T11:17:42.046Z,20.13
2022-09-15T11:20:24.878Z,20.18
2022-09-15T11:23:04.899Z,20.11
2022-09-15T11:25:32.545Z,20.01
2022-09-15T11:28:06.095Z,20.10
2022-09-15T11:30:35.809Z,20.08
2022-09-15T11:33:04.836Z,20.03
2022-09-15T11:35:37.878Z,20.13
2022-09-15T11:38:24.159Z,20.05
2022-09-15T11:41:09.294Z,20.20
2022-09-15T11:43:45.835Z,20.41
2022-09-15T11:46:18.841Z,20.02
2022-09-15T11:48:47.218Z,20.12
2022-09-15T11:51:16.742Z,20.06
2022-09-15T11:53:54.120Z,20.11
2022-09-15T11:56:33.729Z,20.25
2022-09-15T11:59:00.081Z,20.13
2022-09-15T12:01:32.421Z,20.18
2022-09-15T12:04:01.853Z,20.27
2022-09-15T12:06:47.363Z,20.27
2022-09-15T12:09:18.054Z,20.60
2022-09-15T12:11:49.467Z,21.25
2022-09-15T12:14:18.888Z,21.54
2022-09-15T12:16:45.588Z,21.80
2022-09-15T12:19:35.037Z,22.53
2022-09-15T12:22:04.434Z,22.75
2022-09-15T12:24:43.937Z,22.52
2022-09-15T12:27:15.132Z,22.17
2022-09-15T12:29:48.226Z,21.72
2022-09-15T12:32:35.008Z,21.36
2022-09-15T12:35:03.730Z,21.49
2022-09-15T12:37:35.533Z,22.08
2022-09-15T12:40:02.880Z,22.60
2022-09-15T12:42:33.532Z,22.53
2022-09-15T12:44:59.892Z,22.14
2022-09-15T12:47:29.293Z,22.03
2022-09-15T12:49:58.526Z,21.72
2022-09-15T12:52:25.477Z,21.42
2022-09-15T12:54:54.096Z,21.48
2022-09-15T12:57:30.982Z,21.39
2022-09-15T13:00:15.757Z,21.74
2022-09-15T13:02:43.981Z,22.37
2022-09-15T13:05:11.724Z,22.73
2022-09-15T13:07:52.991Z,22.36
2022-09-15T13:10:27.821Z,21.96
2022-09-15T13:13:03.684Z,21.39
2022-09-15T13:15:30.348Z,20.97
2022-09-15T13:17:56.756Z,20.66
2022-09-15T13:20:28.893Z,20.65
2022-09-15T13:22:56.417Z,20.50
2022-09-15T13:25:26.136Z,20.46
2022-09-15T13:27:54.630Z,20.72
2022-09-15T13:30:24.240Z,20.91
2022-09-15T13:33:09.063Z,21.05
2022-09-15T13:35:54.139Z,21.04
2022-09-15T13:38:39.379Z,20.88
2022-09-15T13:41:24.297Z,20.78
2022-09-15T13:44:04.941Z,20.60
2022-09-15T13:46:34.480Z,20.75
2022-09-15T13:49:22.942Z,20.83
2022-09-15T13:51:59.641Z,20.81
2022-09-15T13:54:26.349Z,21.11
2022-09-15T13:56:53.273Z,21.29
2022-09-15T13:59:24.480Z,21.25
2022-09-15T14:01:52.787Z,21.43
2022-09-15T14:04:21.876Z,21.37
2022-09-15T14:06:55.925Z,21.76
2022-09-15T14:09:27.942Z,21.60
2022-09-15T14:11:56.265Z,21.25
2022-09-15T14:14:22.598Z,20.68
2022-09-15T14:16:50.094Z,20.46
2022-09-15T14:19:36.326Z,19.93
2022-09-15T14:22:17.903Z,19.74
2022-09-15T14:24:44.488Z,19.64
2022-09-15T14:27:11.234Z,19.61
2022-09-15T14:29:43.728Z,19.52
2022-09-15T14:32:14.805Z,19.53
2022-09-15T14:34:42.177Z,19.54
2022-09-15T14:37:28.421Z,19.73
2022-09-15T14:39:56.641Z,19.75
2022-09-15T14:42:32.297Z,20.06
2022-09-15T14:48:02.956Z,20.40
2022-09-15T14:50:33.235Z,20.59
2022-09-15T14:53:16.227Z,20.40
2022-09-15T14:56:07.094Z,20.26
2022-09-15T14:58:42.667Z,20.13
2022-09-15T15:01:18.763Z,20.36
2022-09-15T15:03:50.622Z,20.63
2022-09-15T15:06:34.851Z,20.28
2022-09-15T15:09:01.180Z,20.12
2022-09-15T15:11:27.886Z,19.95
2022-09-15T15:13:54.675Z,19.91
2022-09-15T15:16:26.130Z,19.76
2022-09-15T15:18:53.181Z,19.85
2022-09-15T15:21:31.810Z,20.01
2022-09-15T15:23:58.212Z,20.06
2022-09-15T15:26:28.697Z,19.83
2022-09-15T15:28:54.974Z,19.66
2022-09-15T15:31:23.341Z,19.75
2022-09-15T15:34:04.974Z,19.77
2022-09-15T15:36:33.029Z,19.65
2022-09-15T15:39:03.554Z,19.47
2022-09-15T15:41:41.060Z,19.48
2022-09-15T15:44:13.639Z,19.36
2022-09-15T15:46:47.421Z,19.32
2022-09-15T15:49:13.854Z,19.47
2022-09-15T15:51:40.925Z,19.54
2022-09-15T15:54:07.279Z,19.51
2022-09-15T15:56:37.747Z,19.54
2022-09-15T15:59:05.368Z,19.36
2022-09-15T16:01:31.877Z,19.32
2022-09-15T16:03:58.267Z,19.20
2022-09-15T16:06:24.753Z,19.16
2022-09-15T16:08:52.206Z,19.10
2022-09-15T16:11:19.627Z,19.10
2022-09-15T16:13:46.868Z,19.22
2022-09-15T16:16:13.242Z,19.26
2022-09-15T16:18:39.599Z,19.28
2022-09-15T16:21:06.146Z,19.20
2022-09-15T16:23:32.553Z,19.19
2022-09-15T16:26:01.343Z,19.24
2022-09-15T16:28:28.736Z,19.20
2022-09-15T16:30:56.497Z,19.15
2022-09-15T16:33:23.229Z,18.99
2022-09-15T16:35:52.801Z,18.91
2022-09-15T16:38:20.074Z,18.70
2022-09-15T16:40:47.069Z,18.55
2022-09-15T16:43:14.829Z,18.46
2022-09-15T16:45:41.227Z,18.48
2022-09-15T16:48:07.887Z,18.23
2022-09-15T16:50:34.483Z,18.20
2022-09-15T16:53:00.926Z,18.11
2022-09-15T16:55:32.561Z,18.15
2022-09-15T16:57:59.832Z,18.21
2022-09-15T17:00:27.586Z,18.15
2022-09-15T17:02:54.022Z,18.10
2022-09-15T17:05:26.234Z,18.08
2022-09-15T17:07:52.622Z,18.12
2022-09-15T17:10:18.957Z,18.00
2022-09-15T17:12:45.429Z,17.96
2022-09-15T17:15:17.821Z,17.82
2022-09-15T17:17:47.697Z,17.60
2022-09-15T17:20:14.205Z,17.65
2022-09-15T17:22:40.544Z,17.63
2022-09-15T17:25:15.763Z,17.64
2022-09-15T17:27:42.160Z,17.67
2022-09-15T17:30:08.745Z,17.66
2022-09-15T17:32:35.804Z,17.66
2022-09-15T17:35:03.282Z,17.68
2022-09-15T17:37:29.653Z,17.69
2022-09-15T17:39:58.987Z,17.68
2022-09-15T17:42:25.491Z,17.66
2022-09-15T17:44:51.977Z,17.62
2022-09-15T17:47:18.530Z,17.55
2022-09-15T17:49:44.870Z,17.49
2022-09-15T17:52:11.757Z,17.42
2022-09-15T17:54:38.102Z,17.43
2022-09-15T17:57:05.378Z,17.46
2022-09-15T17:59:31.727Z,17.44
2022-09-15T18:01:58.158Z,17.41
2022-09-15T18:04:24.525Z,17.39
2022-09-15T18:06:50.891Z,17.31
2022-09-15T18:09:17.595Z,17.06
2022-09-15T18:11:44.191Z,16.80
2022-09-15T18:14:10.665Z,16.58
2022-09-15T18:16:36.989Z,16.45
2022-09-15T18:19:03.340Z,16.29
2022-09-15T18:21:29.736Z,16.39
2022-09-15T18:23:56.400Z,16.41
2022-09-15T18:26:26.390Z,16.41
2022-09-15T18:28:54.213Z,16.42
2022-09-15T18:31:20.975Z,16.42
2022-09-15T18:33:47.342Z,16.34
2022-09-15T18:36:13.835Z,16.26
2022-09-15T18:38:40.164Z,16.25
2022-09-15T18:41:09.062Z,16.21
2022-09-15T18:43:35.442Z,16.14
2022-09-15T18:46:02.153Z,16.10
2022-09-15T18:48:29.146Z,16.09
2022-09-15T18:50:55.560Z,16.07
2022-09-15T18:53:22.031Z,16.03
2022-09-15T18:55:48.365Z,15.95
2022-09-15T18:58:14.687Z,15.93
2022-09-15T19:00:41.095Z,15.93
2022-09-15T19:03:09.436Z,15.88
2022-09-15T19:05:36.318Z,15.87
2022-09-15T19:08:03.270Z,15.80
2022-09-15T19:10:29.637Z,15.82
2022-09-15T19:12:55.949Z,15.81
2022-09-15T19:15:23.888Z,15.84
2022-09-15T19:17:51.211Z,15.87
2022-09-15T19:20:17.758Z,15.84
2022-09-15T19:22:44.093Z,15.82
2022-09-15T19:25:10.992Z,15.79
2022-09-15T19:27:38.509Z,15.74
2022-09-15T19:30:05.357Z,15.75
2022-09-15T19:32:32.617Z,15.71
2022-09-15T19:34:58.922Z,15.69
2022-09-15T19:37:25.401Z,15.65
2022-09-15T19:39:51.794Z,15.63
2022-09-15T19:42:18.123Z,15.65
2022-09-15T19:44:44.674Z,15.70
2022-09-15T19:47:11.108Z,15.73
2022-09-15T19:49:38.491Z,15.74
2022-09-15T19:52:06.329Z,15.70
2022-09-15T19:54:34.313Z,15.69
2022-09-15T19:57:00.809Z,15.71
2022-09-15T19:59:31.047Z,15.67
2022-09-15T20:01:58.216Z,15.65
2022-09-15T20:04:24.628Z,15.65
2022-09-15T20:06:52.329Z,15.66
2022-09-15T20:09:21.983Z,15.68
2022-09-15T20:11:48.429Z,15.67
2022-09-15T20:14:14.739Z,15.66
2022-09-15T20:16:41.718Z,15.66
2022-09-15T20:19:08.345Z,15.58
2022-09-15T20:21:51.912Z,15.57
2022-09-15T20:24:19.532Z,15.55
2022-09-15T20:26:46.175Z,15.55
2022-09-15T20:29:13.116Z,15.54
2022-09-15T20:31:39.805Z,15.54
2022-09-15T20:34:06.225Z,15.50
2022-09-15T20:36:34.029Z,15.46
2022-09-15T20:39:03.135Z,15.44
2022-09-15T20:41:31.717Z,15.39
2022-09-15T20:43:59.006Z,15.35
2022-09-15T20:46:25.624Z,15.24
2022-09-15T20:48:52.519Z,15.20
2022-09-15T20:51:20.661Z,15.18
2022-09-15T20:53:48.257Z,15.18
2022-09-15T20:56:15.595Z,15.17
2022-09-15T20:58:42.758Z,15.12
2022-09-15T21:01:10.986Z,15.06
2022-09-15T21:03:38.949Z,15.07
2022-09-15T21:06:07.658Z,15.06
2022-09-15T21:08:34.603Z,15.03
2022-09-15T21:11:01.922Z,14.96
2022-09-15T21:13:29.826Z,14.97
2022-09-15T21:15:57.752Z,14.97
2022-09-15T21:18:28.796Z,14.97
2022-09-15T21:20:56.150Z,14.98
2022-09-15T21:23:22.542Z,15.03
2022-09-15T21:26:01.179Z,14.98
2022-09-15T21:28:28.759Z,14.99
2022-09-15T21:31:03.439Z,14.95
2022-09-15T21:33:30.653Z,14.92
2022-09-15T21:36:03.173Z,14.92
2022-09-15T21:38:29.691Z,14.95
2022-09-15T21:40:56.175Z,14.98
2022-09-15T21:43:22.646Z,15.00
2022-09-15T21:45:54.264Z,15.03
2022-09-15T21:48:20.950Z,15.02
2022-09-15T21:50:54.072Z,15.04
2022-09-15T21:53:21.021Z,15.07
2022-09-15T21:55:50.332Z,15.08
2022-09-15T21:58:20.740Z,15.06
2022-09-15T22:00:47.710Z,15.05
2022-09-15T22:03:14.742Z,15.00
2022-09-15T22:05:41.796Z,14.95
2022-09-15T22:08:10.362Z,14.94
2022-09-15T22:10:37.808Z,14.89
2022-09-15T22:13:04.690Z,14.87
2022-09-15T22:15:31.628Z,14.84
2022-09-15T22:17:58.269Z,14.82
2022-09-15T22:20:25.017Z,14.74
2022-09-15T22:22:51.547Z,14.69
2022-09-15T22:25:21.802Z,14.71
2022-09-15T22:27:48.967Z,14.62
2022-09-15T22:30:15.844Z,14.62
2022-09-15T22:32:42.987Z,14.62
2022-09-15T22:35:09.449Z,14.58
2022-09-15T22:37:35.927Z,14.59
2022-09-15T22:40:02.616Z,14.59
2022-09-15T22:42:29.439Z,14.58
2022-09-15T22:44:56.045Z,14.57
2022-09-15T22:47:23.163Z,14.57
2022-09-15T22:49:49.563Z,14.55
2022-09-15T22:52:16.123Z,14.53
2022-09-15T22:54:43.106Z,14.52
2022-09-15T22:57:09.990Z,14.47
2022-09-15T22:59:37.293Z,14.46
2022-09-15T23:02:03.880Z,14.40
2022-09-15T23:04:30.472Z,14.38
2022-09-15T23:06:57.164Z,14.33
2022-09-15T23:09:23.684Z,14.26
2022-09-15T23:11:50.067Z,14.07
2022-09-15T23:14:17.617Z,14.01
2022-09-15T23:16:44.668Z,14.07
2022-09-15T23:19:11.722Z,14.09
2022-09-15T23:21:38.199Z,14.12
2022-09-15T23:24:04.854Z,14.14
2022-09-15T23:26:31.602Z,14.17
2022-09-15T23:28:58.221Z,14.17
2022-09-15T23:31:24.815Z,14.20
2022-09-15T23:33:51.321Z,14.23
2022-09-15T23:36:21.811Z,14.26
2022-09-15T23:38:48.562Z,14.27
2022-09-15T23:41:16.793Z,14.26
2022-09-15T23:43:43.813Z,14.26
2022-09-15T23:46:10.655Z,14.26
2022-09-15T23:48:39.230Z,14.25
2022-09-15T23:51:05.727Z,14.26
2022-09-15T23:53:32.522Z,14.27
2022-09-15T23:55:58.981Z,14.29
2022-09-15T23:58:25.660Z,14.32
